createdAt,value
2022-09-10T00:01:23.739Z,94995.16
2022-09-10T00:03:51.128Z,94978.72
2022-09-10T00:06:19.066Z,94986.22
2022-09-10T00:08:47.311Z,94986.13
2022-09-10T00:11:15.115Z,94995.38
2022-09-10T00:13:43.123Z,94983.94
2022-09-10T00:16:12.963Z,94985.28
2022-09-10T00:18:40.737Z,94986.56
2022-09-10T00:21:10.461Z,94994.66
2022-09-10T00:23:37.905Z,94984.97
2022-09-10T00:26:16.791Z,94989.00
2022-09-10T00:28:44.092Z,94986.84
2022-09-10T00:31:11.304Z,94985.75
2022-09-10T00:33:38.271Z,94990.63
2022-09-10T00:36:14.548Z,94994.84
2022-09-10T00:38:41.995Z,94994.16
2022-09-10T00:41:09.291Z,94994.44
2022-09-10T00:44:00.559Z,95005.00
2022-09-10T00:46:36.721Z,94996.97
2022-09-10T00:49:13.001Z,94980.59
2022-09-10T00:51:40.950Z,94990.63
2022-09-10T00:54:08.025Z,94990.69
2022-09-10T00:56:35.273Z,94989.41
2022-09-10T00:59:04.587Z,94983.84
2022-09-10T01:01:33.689Z,94978.41
2022-09-10T01:04:01.576Z,94982.28
2022-09-10T01:06:28.641Z,94985.97
2022-09-10T01:08:55.723Z,94975.66
2022-09-10T01:11:37.838Z,94985.25
2022-09-10T01:14:26.960Z,94981.41
2022-09-10T01:17:10.035Z,94978.34
2022-09-10T01:19:58.675Z,94980.50
2022-09-10T01:22:37.727Z,94981.13
2022-09-10T01:25:43.744Z,94981.97
2022-09-10T01:28:21.481Z,94967.78
2022-09-10T01:30:54.759Z,94983.97
2022-09-10T01:33:43.092Z,94974.00
2022-09-10T01:36:23.984Z,94967.31
2022-09-10T01:38:52.003Z,94960.56
2022-09-10T01:41:24.078Z,94961.06
2022-09-10T01:43:50.971Z,94961.22
2022-09-10T01:46:29.963Z,94954.34
2022-09-10T01:49:09.784Z,94959.22
2022-09-10T01:51:56.411Z,94959.72
2022-09-10T01:54:52.002Z,94958.13
2022-09-10T01:58:00.567Z,94964.03
2022-09-10T02:00:38.434Z,94963.91
2022-09-10T02:03:11.451Z,94963.69
2022-09-10T02:05:42.059Z,94970.53
2022-09-10T02:08:17.064Z,94969.00
2022-09-10T02:10:50.866Z,94971.19
2022-09-10T02:13:17.848Z,94989.16
2022-09-10T02:16:08.293Z,94993.75
2022-09-10T02:18:42.793Z,94967.34
2022-09-10T02:21:12.073Z,94970.84
2022-09-10T02:23:50.620Z,94962.16
2022-09-10T02:26:17.541Z,94966.06
2022-09-10T02:28:44.762Z,94975.03
2022-09-10T02:31:12.896Z,94970.66
2022-09-10T02:33:39.866Z,94976.03
2022-09-10T02:36:06.834Z,94966.41
2022-09-10T02:38:33.713Z,94958.31
2022-09-10T02:41:00.644Z,94966.09
2022-09-10T02:43:28.359Z,94980.03
2022-09-10T02:45:59.105Z,94977.75
2022-09-10T02:48:27.127Z,94981.50
2022-09-10T02:50:57.447Z,94980.88
2022-09-10T02:53:26.981Z,94981.84
2022-09-10T02:55:56.778Z,94978.78
2022-09-10T02:58:24.175Z,94982.06
2022-09-10T03:00:51.755Z,94981.03
2022-09-10T03:03:18.681Z,94980.69
2022-09-10T03:05:45.445Z,94978.72
2022-09-10T03:08:13.766Z,94982.19
2022-09-10T03:10:43.637Z,94982.63
2022-09-10T03:13:11.233Z,94989.00
2022-09-10T03:15:38.292Z,94987.03
2022-09-10T03:18:05.724Z,94983.13
2022-09-10T03:20:32.583Z,94982.69
2022-09-10T03:22:59.353Z,94988.56
2022-09-10T03:25:26.178Z,94987.31
2022-09-10T03:27:57.355Z,94980.09
2022-09-10T03:30:26.151Z,94984.88
2022-09-10T03:32:54.629Z,94980.00
2022-09-10T03:35:22.404Z,94971.44
2022-09-10T03:37:49.548Z,94967.25
2022-09-10T03:40:17.016Z,94975.31
2022-09-10T03:42:44.088Z,94973.19
2022-09-10T03:45:12.098Z,94963.44
2022-09-10T03:47:39.479Z,94967.31
2022-09-10T03:50:06.872Z,94972.50
2022-09-10T03:52:33.760Z,94961.69
2022-09-10T03:55:01.768Z,94945.69
2022-09-10T03:57:28.738Z,94958.97
2022-09-10T03:59:56.671Z,94953.03
2022-09-10T04:02:24.062Z,94952.69
2022-09-10T04:04:50.830Z,94941.81
2022-09-10T04:07:17.739Z,94947.13
2022-09-10T04:09:44.705Z,94953.50
2022-09-10T04:12:12.368Z,94961.13
2022-09-10T04:14:39.456Z,94960.56
2022-09-10T04:17:06.389Z,94957.44
2022-09-10T04:19:33.279Z,94955.47
2022-09-10T04:22:00.132Z,94962.47
2022-09-10T04:24:27.004Z,94965.59
2022-09-10T04:26:54.204Z,94971.56
2022-09-10T04:29:23.035Z,94978.03
2022-09-10T04:31:50.711Z,94985.84
2022-09-10T04:34:18.827Z,94996.22
2022-09-10T04:36:46.063Z,94997.56
2022-09-10T04:39:14.585Z,94997.25
2022-09-10T04:41:42.399Z,94995.50
2022-09-10T04:44:10.176Z,94989.34
2022-09-10T04:46:37.536Z,94978.25
2022-09-10T04:49:08.556Z,94973.84
2022-09-10T04:51:35.439Z,94976.41
2022-09-10T04:54:02.299Z,94975.56
2022-09-10T04:56:33.302Z,94960.72
2022-09-10T04:59:00.939Z,94949.03
2022-09-10T05:01:31.277Z,94953.56
2022-09-10T05:03:58.139Z,94958.94
2022-09-10T05:06:25.211Z,94965.94
2022-09-10T05:08:52.164Z,94960.50
2022-09-10T05:11:19.848Z,94962.00
2022-09-10T05:13:47.808Z,94960.22
2022-09-10T05:16:18.271Z,94973.50
2022-09-10T05:18:45.707Z,94972.00
2022-09-10T05:21:13.364Z,94981.06
2022-09-10T05:23:41.783Z,94986.09
2022-09-10T05:26:10.232Z,94977.47
2022-09-10T05:28:37.552Z,94986.16
2022-09-10T05:31:07.348Z,94994.59
2022-09-10T05:33:34.545Z,95000.66
2022-09-10T05:36:01.705Z,94995.69
2022-09-10T05:38:29.941Z,95002.44
2022-09-10T05:40:57.765Z,94998.19
2022-09-10T05:43:27.680Z,95000.22
2022-09-10T05:45:55.927Z,94994.50
2022-09-10T05:48:22.951Z,94984.31
2022-09-10T05:50:49.738Z,94972.53
2022-09-10T05:53:17.020Z,94982.34
2022-09-10T05:55:46.036Z,94976.31
2022-09-10T05:58:13.657Z,94979.25
2022-09-10T06:00:43.237Z,94983.16
2022-09-10T06:03:10.520Z,94981.75
2022-09-10T06:05:52.448Z,94983.31
2022-09-10T06:08:24.309Z,94985.41
2022-09-10T06:11:06.573Z,94983.91
2022-09-10T06:13:42.296Z,94979.94
2022-09-10T06:16:10.191Z,94987.50
2022-09-10T06:18:38.461Z,94973.06
2022-09-10T06:21:15.328Z,94987.25
2022-09-10T06:23:45.302Z,94992.38
2022-09-10T06:26:20.052Z,94985.69
2022-09-10T06:28:52.875Z,94979.22
2022-09-10T06:31:20.307Z,94974.06
2022-09-10T06:33:49.989Z,94972.63
2022-09-10T06:36:23.222Z,94978.19
2022-09-10T06:38:51.659Z,94972.66
2022-09-10T06:41:21.283Z,94986.69
2022-09-10T06:43:54.779Z,94992.16
2022-09-10T06:47:32.452Z,94994.66
2022-09-10T06:49:31.414Z,94992.41
2022-09-10T06:51:58.456Z,94982.69
2022-09-10T06:54:26.675Z,94981.00
2022-09-10T06:56:58.046Z,94978.34
2022-09-10T06:59:25.728Z,94972.00
2022-09-10T07:01:55.270Z,94972.25
2022-09-10T07:04:22.157Z,94979.09
2022-09-10T07:06:49.964Z,94975.88
2022-09-10T07:09:17.190Z,94970.69
2022-09-10T07:12:04.773Z,94971.31
2022-09-10T07:14:35.123Z,94972.25
2022-09-10T07:17:05.861Z,94977.38
2022-09-10T07:19:36.209Z,94975.84
2022-09-10T07:22:06.279Z,94974.31
2022-09-10T07:24:34.172Z,94979.69
2022-09-10T07:27:11.096Z,94973.16
2022-09-10T07:29:41.137Z,94968.44
2022-09-10T07:32:13.724Z,94960.09
2022-09-10T07:34:41.641Z,94980.19
2022-09-10T07:37:08.520Z,94979.56
2022-09-10T07:39:35.820Z,94966.25
2022-09-10T07:42:03.007Z,94967.06
2022-09-10T07:44:34.675Z,94972.00
2022-09-10T07:47:03.445Z,94971.25
2022-09-10T07:49:31.561Z,94980.19
2022-09-10T07:52:00.241Z,94974.03
2022-09-10T07:54:32.188Z,94970.47
2022-09-10T07:57:00.276Z,94973.50
2022-09-10T07:59:28.051Z,94971.03
2022-09-10T08:02:00.789Z,94962.06
2022-09-10T08:04:36.781Z,94961.94
2022-09-10T08:07:07.740Z,94974.00
2022-09-10T08:09:37.492Z,94969.06
2022-09-10T08:12:07.667Z,94966.22
2022-09-10T08:14:35.143Z,94967.69
2022-09-10T08:17:01.999Z,94973.34
2022-09-10T08:19:29.632Z,94970.13
2022-09-10T08:21:56.794Z,94968.56
2022-09-10T08:24:31.291Z,94959.75
2022-09-10T08:26:58.306Z,94967.97
2022-09-10T08:29:25.955Z,94968.28
2022-09-10T08:31:52.863Z,94962.66
2022-09-10T08:34:27.112Z,94950.16
2022-09-10T08:37:03.393Z,94954.59
2022-09-10T08:39:33.093Z,94944.63
2022-09-10T08:42:05.993Z,94941.69
2022-09-10T08:44:54.535Z,94945.03
2022-09-10T08:48:16.641Z,94944.88
2022-09-10T08:51:13.731Z,94941.41
2022-09-10T08:53:53.861Z,94951.47
2022-09-10T08:56:23.548Z,94937.56
2022-09-10T08:59:17.219Z,94943.78
2022-09-10T09:02:01.442Z,94939.28
2022-09-10T09:04:30.023Z,94942.88
2022-09-10T09:07:02.878Z,94943.94
2022-09-10T09:09:30.837Z,94944.00
2022-09-10T09:12:15.738Z,94939.28
2022-09-10T09:14:50.339Z,94939.09
2022-09-10T09:17:58.829Z,94930.50
2022-09-10T09:21:00.905Z,94935.94
2022-09-10T09:24:02.832Z,94928.31
2022-09-10T09:26:36.958Z,94922.69
2022-09-10T09:29:28.791Z,94908.47
2022-09-10T09:32:00.935Z,94911.47
2022-09-10T09:34:36.265Z,94906.91
2022-09-10T09:37:12.760Z,94891.50
2022-09-10T09:39:55.403Z,94890.66
2022-09-10T09:42:32.738Z,94894.53
2022-09-10T09:45:18.556Z,94882.13
2022-09-10T09:47:46.824Z,94879.06
2022-09-10T09:50:14.459Z,94875.09
2022-09-10T09:52:44.356Z,94867.50
2022-09-10T09:55:29.568Z,94871.41
2022-09-10T09:58:21.160Z,94868.03
2022-09-10T10:01:03.579Z,94863.69
2022-09-10T10:03:58.589Z,94856.75
2022-09-10T10:06:29.708Z,94849.81
2022-09-10T10:09:39.057Z,94838.91
2022-09-10T10:12:07.206Z,94832.00
2022-09-10T10:14:41.475Z,94829.59
2022-09-10T10:17:37.531Z,94831.50
2022-09-10T10:20:10.392Z,94825.75
2022-09-10T10:22:40.064Z,94815.38
2022-09-10T10:25:34.323Z,94811.91
2022-09-10T10:28:01.559Z,94804.50
2022-09-10T10:30:31.607Z,94803.31
2022-09-10T10:33:00.377Z,94805.44
2022-09-10T10:35:30.100Z,94807.44
2022-09-10T10:38:18.455Z,94809.69
2022-09-10T10:40:51.542Z,94808.38
2022-09-10T10:43:47.543Z,94801.34
2022-09-10T10:46:20.912Z,94789.25
2022-09-10T10:49:33.952Z,94785.19
2022-09-10T10:52:15.881Z,94783.22
2022-09-10T10:55:13.015Z,94785.75
2022-09-10T10:58:02.079Z,94787.44
2022-09-10T11:00:40.835Z,94780.56
2022-09-10T11:03:16.006Z,94761.66
2022-09-10T11:05:53.024Z,94764.94
2022-09-10T11:08:32.394Z,94765.53
2022-09-10T11:11:49.524Z,94759.59
2022-09-10T11:15:02.286Z,94767.38
2022-09-10T11:17:46.506Z,94769.94
2022-09-10T11:20:28.817Z,94767.34
2022-09-10T11:23:18.461Z,94785.66
2022-09-10T11:25:57.047Z,94834.25
2022-09-10T11:29:14.053Z,94865.22
2022-09-10T11:31:49.955Z,94850.38
2022-09-10T11:34:41.847Z,94867.06
2022-09-10T11:37:17.806Z,94868.28
2022-09-10T11:39:50.660Z,94865.22
2022-09-10T11:42:30.373Z,94876.78
2022-09-10T11:45:18.170Z,94852.09
2022-09-10T11:47:50.644Z,94843.66
2022-09-10T11:50:23.624Z,94857.19
2022-09-10T11:52:51.396Z,94851.31
2022-09-10T11:55:18.450Z,94846.78
2022-09-10T11:58:03.925Z,94852.44
2022-09-10T12:00:36.346Z,94867.69
2022-09-10T12:03:21.608Z,94878.91
2022-09-10T12:06:10.851Z,94878.16
2022-09-10T12:08:44.023Z,94861.19
2022-09-10T12:11:38.992Z,94862.66
2022-09-10T12:14:17.106Z,94865.34
2022-09-10T12:17:03.324Z,94862.50
2022-09-10T12:19:37.647Z,94846.38
2022-09-10T12:22:20.366Z,94838.94
2022-09-10T12:25:07.003Z,94843.91
2022-09-10T12:28:06.745Z,94820.47
2022-09-10T12:30:33.679Z,94805.66
2022-09-10T12:33:07.622Z,94801.22
2022-09-10T12:35:34.672Z,94801.56
2022-09-10T12:38:42.042Z,94796.88
2022-09-10T12:41:29.152Z,94787.69
2022-09-10T12:44:00.636Z,94785.00
2022-09-10T12:46:31.319Z,94787.31
2022-09-10T12:49:01.189Z,94769.56
2022-09-10T12:51:49.801Z,94764.50
2022-09-10T12:54:50.824Z,94775.38
2022-09-10T12:57:20.441Z,94771.44
2022-09-10T13:00:12.019Z,94759.75
2022-09-10T13:03:07.562Z,94754.88
2022-09-10T13:05:39.466Z,94765.69
2022-09-10T13:08:12.412Z,94760.78
2022-09-10T13:10:40.989Z,94758.31
2022-09-10T13:13:43.951Z,94757.75
2022-09-10T13:16:20.430Z,94754.84
2022-09-10T13:18:48.405Z,94746.19
2022-09-10T13:21:23.935Z,94762.22
2022-09-10T13:23:52.396Z,94758.06
2022-09-10T13:26:48.387Z,94752.13
2022-09-10T13:29:52.704Z,94743.59
2022-09-10T13:32:37.776Z,94745.44
2022-09-10T13:35:19.851Z,94744.06
2022-09-10T13:37:56.246Z,94755.31
2022-09-10T13:40:38.760Z,94759.94
2022-09-10T13:43:20.192Z,94750.28
2022-09-10T13:45:52.103Z,94746.75
2022-09-10T13:48:23.944Z,94747.56
2022-09-10T13:51:06.702Z,94739.47
2022-09-10T13:53:35.536Z,94747.56
2022-09-10T13:56:11.228Z,94740.28
2022-09-10T13:58:48.488Z,94730.59
2022-09-10T14:01:15.692Z,94729.91
2022-09-10T14:03:42.553Z,94739.22
2022-09-10T14:06:21.694Z,94725.13
2022-09-10T14:08:56.116Z,94708.06
2022-09-10T14:11:30.291Z,94707.53
2022-09-10T14:14:03.267Z,94715.06
2022-09-10T14:16:39.293Z,94711.44
2022-09-10T14:19:15.212Z,94713.19
2022-09-10T14:21:43.699Z,94713.34
2022-09-10T14:24:29.110Z,94712.66
2022-09-10T14:27:16.161Z,94710.84
2022-09-10T14:29:43.644Z,94694.81
2022-09-10T14:32:31.717Z,94716.94
2022-09-10T14:34:59.482Z,94715.09
2022-09-10T14:37:44.633Z,94708.94
2022-09-10T14:40:21.592Z,94711.28
2022-09-10T14:42:50.043Z,94705.13
2022-09-10T14:45:40.749Z,94709.78
2022-09-10T14:48:38.865Z,94710.59
2022-09-10T14:51:14.496Z,94700.09
2022-09-10T14:53:42.859Z,94692.56
2022-09-10T14:56:25.391Z,94696.53
2022-09-10T14:59:01.652Z,94692.88
2022-09-10T15:01:29.996Z,94692.84
2022-09-10T15:03:58.058Z,94689.53
2022-09-10T15:06:26.571Z,94692.50
2022-09-10T15:08:56.178Z,94696.09
2022-09-10T15:11:26.138Z,94693.13
2022-09-10T15:13:56.153Z,94702.09
2022-09-10T15:16:25.593Z,94685.84
2022-09-10T15:18:52.512Z,94695.09
2022-09-10T15:21:19.939Z,94705.19
2022-09-10T15:23:48.155Z,94717.19
2022-09-10T15:26:15.589Z,94716.00
2022-09-10T15:28:42.408Z,94716.00
2022-09-10T15:31:10.418Z,94734.16
2022-09-10T15:33:37.284Z,94751.06
2022-09-10T15:36:04.468Z,94761.13
2022-09-10T15:38:31.518Z,94750.47
2022-09-10T15:41:13.305Z,94745.16
2022-09-10T15:43:43.141Z,94747.34
2022-09-10T15:46:16.242Z,94747.59
2022-09-10T15:48:43.579Z,94759.13
2022-09-10T15:51:17.196Z,94760.69
2022-09-10T15:53:46.046Z,94752.22
2022-09-10T15:56:13.784Z,94743.75
2022-09-10T15:58:41.924Z,94760.78
2022-09-10T16:01:12.164Z,94768.00
2022-09-10T16:03:45.651Z,94756.81
2022-09-10T16:06:14.593Z,94751.41
2022-09-10T16:08:42.111Z,94732.09
2022-09-10T16:11:11.844Z,94767.63
2022-09-10T16:13:39.778Z,94757.31
2022-09-10T16:16:10.031Z,94745.38
2022-09-10T16:18:36.955Z,94750.44
2022-09-10T16:21:09.402Z,94756.78
2022-09-10T16:23:37.182Z,94757.06
2022-09-10T16:26:07.711Z,94757.94
2022-09-10T16:28:35.472Z,94758.22
2022-09-10T16:31:13.995Z,94742.88
2022-09-10T16:33:41.488Z,94747.59
2022-09-10T16:36:09.107Z,94752.44
2022-09-10T16:38:35.743Z,94739.53
2022-09-10T16:41:04.210Z,94754.25
2022-09-10T16:43:35.484Z,94748.09
2022-09-10T16:46:03.636Z,94742.66
2022-09-10T16:48:31.806Z,94756.59
2022-09-10T16:51:07.810Z,94758.97
2022-09-10T16:53:38.947Z,94760.25
2022-09-10T16:56:08.715Z,94761.81
2022-09-10T16:58:36.858Z,94765.00
2022-09-10T17:01:06.361Z,94766.63
2022-09-10T17:03:33.102Z,94764.97
2022-09-10T17:06:00.199Z,94781.94
2022-09-10T17:08:29.241Z,94779.72
2022-09-10T17:10:56.790Z,94783.44
2022-09-10T17:13:23.606Z,94794.72
2022-09-10T17:15:53.320Z,94798.72
2022-09-10T17:18:20.537Z,94795.59
2022-09-10T17:20:48.510Z,94808.88
2022-09-10T17:23:18.631Z,94798.97
2022-09-10T17:25:45.561Z,94796.34
2022-09-10T17:28:12.869Z,94805.91
2022-09-10T17:30:39.723Z,94811.19
2022-09-10T17:33:06.457Z,94814.72
2022-09-10T17:35:33.176Z,94810.06
2022-09-10T17:38:00.064Z,94805.53
2022-09-10T17:40:26.798Z,94812.09
2022-09-10T17:42:53.723Z,94804.75
2022-09-10T17:45:21.283Z,94802.50
2022-09-10T17:47:48.528Z,94800.44
2022-09-10T17:50:15.451Z,94810.81
2022-09-10T17:52:45.845Z,94805.31
2022-09-10T17:55:12.640Z,94820.09
2022-09-10T17:57:39.723Z,94817.84
2022-09-10T18:00:07.195Z,94820.28
2022-09-10T18:02:34.470Z,94825.84
2022-09-10T18:05:01.839Z,94810.94
2022-09-10T18:07:28.753Z,94809.91
2022-09-10T18:09:55.602Z,94820.22
2022-09-10T18:12:22.444Z,94827.28
2022-09-10T18:14:49.216Z,94823.91
2022-09-10T18:17:17.455Z,94810.00
2022-09-10T18:19:44.298Z,94813.19
2022-09-10T18:22:11.688Z,94818.78
2022-09-10T18:24:39.452Z,94824.09
2022-09-10T18:27:06.532Z,94820.75
2022-09-10T18:29:33.459Z,94825.84
2022-09-10T18:32:03.781Z,94823.47
2022-09-10T18:34:30.993Z,94836.28
2022-09-10T18:37:02.518Z,94826.91
2022-09-10T18:39:31.502Z,94830.03
2022-09-10T18:42:00.989Z,94833.88
2022-09-10T18:44:33.110Z,94837.19
2022-09-10T18:47:00.350Z,94831.88
2022-09-10T18:49:27.098Z,94841.66
2022-09-10T18:51:55.592Z,94856.84
2022-09-10T18:54:24.389Z,94860.13
2022-09-10T18:56:51.428Z,94858.22
2022-09-10T18:59:20.361Z,94868.50
2022-09-10T19:01:48.938Z,94878.38
2022-09-10T19:04:21.969Z,94881.31
2022-09-10T19:06:49.511Z,94892.44
2022-09-10T19:09:21.900Z,94888.50
2022-09-10T19:11:50.627Z,94887.66
2022-09-10T19:14:21.313Z,94890.75
2022-09-10T19:16:50.223Z,94884.84
2022-09-10T19:19:19.935Z,94890.16
2022-09-10T19:21:48.860Z,94891.91
2022-09-10T19:24:17.105Z,94889.34
2022-09-10T19:26:46.116Z,94890.44
2022-09-10T19:29:17.978Z,94887.19
2022-09-10T19:31:46.764Z,94881.03
2022-09-10T19:34:16.156Z,94879.94
2022-09-10T19:36:44.333Z,94884.56
2022-09-10T19:39:14.155Z,94887.66
2022-09-10T19:41:43.044Z,94878.03
2022-09-10T19:44:12.467Z,94876.97
2022-09-10T19:46:41.147Z,94886.25
2022-09-10T19:49:10.124Z,94886.34
2022-09-10T19:51:38.656Z,94880.88
2022-09-10T19:54:06.723Z,94883.06
2022-09-10T19:56:37.237Z,94883.84
2022-09-10T19:59:08.693Z,94889.53
2022-09-10T20:01:39.975Z,94888.53
2022-09-10T20:04:09.297Z,94892.97
2022-09-10T20:06:37.226Z,94887.09
2022-09-10T20:09:05.826Z,94887.47
2022-09-10T20:11:35.079Z,94886.13
2022-09-10T20:14:11.284Z,94880.91
2022-09-10T20:16:40.972Z,94896.50
2022-09-10T20:19:07.949Z,94899.38
2022-09-10T20:21:35.957Z,94908.34
2022-09-10T20:24:05.563Z,94909.34
2022-09-10T20:26:34.546Z,94904.53
2022-09-10T20:29:07.388Z,94922.88
2022-09-10T20:31:36.165Z,94925.28
2022-09-10T20:34:05.528Z,94929.69
2022-09-10T20:36:34.481Z,94932.50
2022-09-10T20:39:02.066Z,94938.22
2022-09-10T20:41:30.218Z,94942.03
2022-09-10T20:43:59.681Z,94936.00
2022-09-10T20:46:28.440Z,94940.38
2022-09-10T20:49:05.768Z,94934.41
2022-09-10T20:51:35.427Z,94941.66
2022-09-10T20:54:03.659Z,94938.75
2022-09-10T20:56:30.602Z,94917.50
2022-09-10T20:58:57.632Z,94935.81
2022-09-10T21:01:27.310Z,94944.63
2022-09-10T21:03:57.766Z,94942.38
2022-09-10T21:06:27.906Z,94940.84
2022-09-10T21:08:58.205Z,94944.06
2022-09-10T21:11:28.037Z,94947.28
2022-09-10T21:13:57.282Z,94936.28
2022-09-10T21:16:27.998Z,94933.31
2022-09-10T21:19:22.292Z,94941.69
2022-09-10T21:21:49.604Z,94934.47
2022-09-10T21:24:19.095Z,94941.34
2022-09-10T21:26:46.260Z,94951.72
2022-09-10T21:29:15.592Z,94944.13
2022-09-10T21:31:42.727Z,94943.19
2022-09-10T21:34:09.693Z,94944.16
2022-09-10T21:36:38.075Z,94936.13
2022-09-10T21:39:07.313Z,94940.59
2022-09-10T21:41:39.939Z,94942.19
2022-09-10T21:44:14.140Z,94941.09
2022-09-10T21:46:42.466Z,94940.09
2022-09-10T21:49:09.520Z,94936.16
2022-09-10T21:51:37.359Z,94953.81
2022-09-10T21:54:04.880Z,94952.09
2022-09-10T21:56:33.463Z,94946.06
2022-09-10T21:59:01.281Z,94948.63
2022-09-10T22:01:31.334Z,94944.63
2022-09-10T22:04:00.569Z,94943.78
2022-09-10T22:06:30.048Z,94936.47
2022-09-10T22:08:59.436Z,94943.06
2022-09-10T22:11:47.012Z,94945.09
2022-09-10T22:14:16.691Z,94943.81
2022-09-10T22:16:44.270Z,94949.44
2022-09-10T22:19:20.421Z,94933.94
2022-09-10T22:21:47.382Z,94943.72
2022-09-10T22:24:15.072Z,94934.16
2022-09-10T22:26:43.989Z,94929.66
2022-09-10T22:29:12.511Z,94946.22
2022-09-10T22:31:39.749Z,94936.06
2022-09-10T22:34:10.140Z,94941.28
2022-09-10T22:36:38.855Z,94949.03
2022-09-10T22:39:12.389Z,94943.78
2022-09-10T22:41:39.816Z,94938.41
2022-09-10T22:44:07.007Z,94946.19
2022-09-10T22:46:35.596Z,94951.22
2022-09-10T22:49:04.900Z,94959.16
2022-09-10T22:51:36.010Z,94958.06
2022-09-10T22:54:04.741Z,94964.06
2022-09-10T22:56:31.751Z,94950.22
2022-09-10T22:58:59.748Z,94946.19
2022-09-10T23:01:29.555Z,94949.22
2022-09-10T23:04:01.805Z,94950.69
2022-09-10T23:06:30.946Z,94941.84
2022-09-10T23:09:03.602Z,94940.34
2022-09-10T23:11:32.276Z,94930.59
2022-09-10T23:14:01.531Z,94926.28
2022-09-10T23:16:34.451Z,94935.09
2022-09-10T23:19:04.687Z,94938.44
2022-09-10T23:21:33.491Z,94928.09
2022-09-10T23:24:02.930Z,94924.19
2022-09-10T23:26:30.391Z,94929.06
2022-09-10T23:28:57.576Z,94924.84
2022-09-10T23:31:29.434Z,94934.31
2022-09-10T23:34:05.159Z,94931.13
2022-09-10T23:36:38.631Z,94935.94
2022-09-10T23:39:17.200Z,94927.91
2022-09-10T23:41:44.090Z,94938.91
2022-09-10T23:44:10.837Z,94928.44
2022-09-10T23:46:38.271Z,94936.50
2022-09-10T23:49:07.534Z,94926.63
2022-09-10T23:51:35.266Z,94932.78
2022-09-10T23:54:02.779Z,94931.31
2022-09-10T23:56:30.059Z,94929.47
2022-09-10T23:58:59.615Z,94922.50
